sensor_id;sensor_type;location;lat;lon;timestamp;P1;durP1;ratioP1;P2;durP2;ratioP2
12776;SDS011;6452;41.572;23.732;2023-05-19T00:00:41;1.20;;;1.20;;
12776;SDS011;6452;41.572;23.732;2023-05-19T00:03:09;1.50;;;1.40;;
12776;SDS011;6452;41.572;23.732;2023-05-19T00:05:38;1.55;;;1.45;;
12776;SDS011;6452;41.572;23.732;2023-05-19T00:08:10;1.17;;;1.17;;
12776;SDS011;6452;41.572;23.732;2023-05-19T00:10:37;1.98;;;1.23;;
12776;SDS011;6452;41.572;23.732;2023-05-19T00:13:04;1.60;;;1.40;;
12776;SDS011;6452;41.572;23.732;2023-05-19T00:15:30;1.70;;;1.60;;
12776;SDS011;6452;41.572;23.732;2023-05-19T00:17:56;1.60;;;1.50;;
12776;SDS011;6452;41.572;23.732;2023-05-19T00:20:23;1.38;;;1.38;;
12776;SDS011;6452;41.572;23.732;2023-05-19T00:22:49;1.52;;;1.42;;
12776;SDS011;6452;41.572;23.732;2023-05-19T00:25:15;1.58;;;1.50;;
12776;SDS011;6452;41.572;23.732;2023-05-19T00:27:42;1.30;;;1.30;;
12776;SDS011;6452;41.572;23.732;2023-05-19T00:30:08;1.30;;;1.20;;
12776;SDS011;6452;41.572;23.732;2023-05-19T00:32:34;1.17;;;1.17;;
12776;SDS011;6452;41.572;23.732;2023-05-19T00:35:00;1.30;;;1.30;;
12776;SDS011;6452;41.572;23.732;2023-05-19T00:37:26;1.50;;;1.40;;
12776;SDS011;6452;41.572;23.732;2023-05-19T00:39:52;1.58;;;1.48;;
12776;SDS011;6452;41.572;23.732;2023-05-19T00:42:19;1.27;;;1.27;;
12776;SDS011;6452;41.572;23.732;2023-05-19T00:44:45;1.52;;;1.40;;
12776;SDS011;6452;41.572;23.732;2023-05-19T00:47:11;1.55;;;1.38;;
12776;SDS011;6452;41.572;23.732;2023-05-19T00:49:37;1.45;;;1.40;;
12776;SDS011;6452;41.572;23.732;2023-05-19T00:52:03;1.40;;;1.40;;
12776;SDS011;6452;41.572;23.732;2023-05-19T00:54:32;1.27;;;1.27;;
12776;SDS011;6452;41.572;23.732;2023-05-19T00:56:58;1.83;;;1.73;;
12776;SDS011;6452;41.572;23.732;2023-05-19T00:59:23;1.20;;;1.20;;
12776;SDS011;6452;41.572;23.732;2023-05-19T01:01:49;1.10;;;1.10;;
12776;SDS011;6452;41.572;23.732;2023-05-19T01:04:17;1.40;;;1.40;;
12776;SDS011;6452;41.572;23.732;2023-05-19T01:06:45;1.45;;;1.35;;
12776;SDS011;6452;41.572;23.732;2023-05-19T01:09:11;1.10;;;1.10;;
12776;SDS011;6452;41.572;23.732;2023-05-19T01:11:37;1.70;;;1.63;;
12776;SDS011;6452;41.572;23.732;2023-05-19T01:14:03;1.23;;;1.23;;
12776;SDS011;6452;41.572;23.732;2023-05-19T01:16:30;1.63;;;1.50;;
12776;SDS011;6452;41.572;23.732;2023-05-19T01:27:07;1.50;;;1.40;;
12776;SDS011;6452;41.572;23.732;2023-05-19T01:32:00;1.33;;;1.27;;
12776;SDS011;6452;41.572;23.732;2023-05-19T01:34:28;1.40;;;1.40;;
12776;SDS011;6452;41.572;23.732;2023-05-19T01:36:55;1.75;;;1.65;;
12776;SDS011;6452;41.572;23.732;2023-05-19T01:39:23;2.72;;;1.45;;
12776;SDS011;6452;41.572;23.732;2023-05-19T01:41:49;1.27;;;1.27;;
12776;SDS011;6452;41.572;23.732;2023-05-19T01:44:15;1.63;;;1.63;;
12776;SDS011;6452;41.572;23.732;2023-05-19T01:46:41;1.65;;;1.55;;
12776;SDS011;6452;41.572;23.732;2023-05-19T01:49:07;1.20;;;1.20;;
12776;SDS011;6452;41.572;23.732;2023-05-19T01:51:33;1.48;;;1.48;;
12776;SDS011;6452;41.572;23.732;2023-05-19T01:54:00;1.70;;;1.35;;
12776;SDS011;6452;41.572;23.732;2023-05-19T01:59:33;2.22;;;1.50;;
12776;SDS011;6452;41.572;23.732;2023-05-19T02:02:01;1.55;;;1.48;;
12776;SDS011;6452;41.572;23.732;2023-05-19T02:04:43;1.55;;;1.45;;
12776;SDS011;6452;41.572;23.732;2023-05-19T02:07:16;1.52;;;1.52;;
12776;SDS011;6452;41.572;23.732;2023-05-19T02:09:51;1.42;;;1.42;;
12776;SDS011;6452;41.572;23.732;2023-05-19T02:17:27;1.95;;;1.85;;
12776;SDS011;6452;41.572;23.732;2023-05-19T02:19:53;2.40;;;1.92;;
12776;SDS011;6452;41.572;23.732;2023-05-19T02:22:20;2.03;;;1.90;;
12776;SDS011;6452;41.572;23.732;2023-05-19T02:24:46;2.30;;;2.10;;
12776;SDS011;6452;41.572;23.732;2023-05-19T02:27:16;1.88;;;1.77;;
12776;SDS011;6452;41.572;23.732;2023-05-19T02:29:42;1.70;;;1.60;;
12776;SDS011;6452;41.572;23.732;2023-05-19T02:32:08;1.23;;;1.23;;
12776;SDS011;6452;41.572;23.732;2023-05-19T02:34:33;2.00;;;1.85;;
12776;SDS011;6452;41.572;23.732;2023-05-19T02:37:00;1.65;;;1.48;;
12776;SDS011;6452;41.572;23.732;2023-05-19T02:39:26;3.13;;;1.70;;
12776;SDS011;6452;41.572;23.732;2023-05-19T02:41:53;1.77;;;1.67;;
12776;SDS011;6452;41.572;23.732;2023-05-19T02:44:20;1.65;;;1.55;;
12776;SDS011;6452;41.572;23.732;2023-05-19T02:46:46;1.75;;;1.63;;
12776;SDS011;6452;41.572;23.732;2023-05-19T02:49:12;1.70;;;1.60;;
12776;SDS011;6452;41.572;23.732;2023-05-19T02:51:38;1.48;;;1.48;;
12776;SDS011;6452;41.572;23.732;2023-05-19T02:54:04;1.30;;;1.30;;
12776;SDS011;6452;41.572;23.732;2023-05-19T02:56:30;1.42;;;1.33;;
12776;SDS011;6452;41.572;23.732;2023-05-19T02:58:56;3.15;;;1.58;;
12776;SDS011;6452;41.572;23.732;2023-05-19T03:01:22;1.40;;;1.30;;
12776;SDS011;6452;41.572;23.732;2023-05-19T03:03:48;1.65;;;1.55;;
12776;SDS011;6452;41.572;23.732;2023-05-19T03:06:14;2.20;;;1.95;;
12776;SDS011;6452;41.572;23.732;2023-05-19T03:08:42;3.53;;;3.28;;
12776;SDS011;6452;41.572;23.732;2023-05-19T03:11:08;2.60;;;2.40;;
12776;SDS011;6452;41.572;23.732;2023-05-19T03:13:34;1.88;;;1.77;;
12776;SDS011;6452;41.572;23.732;2023-05-19T03:16:00;2.85;;;2.10;;
12776;SDS011;6452;41.572;23.732;2023-05-19T03:18:26;1.90;;;1.80;;
12776;SDS011;6452;41.572;23.732;2023-05-19T03:20:53;2.33;;;2.22;;
12776;SDS011;6452;41.572;23.732;2023-05-19T03:23:20;2.10;;;2.00;;
12776;SDS011;6452;41.572;23.732;2023-05-19T03:25:46;2.03;;;1.92;;
12776;SDS011;6452;41.572;23.732;2023-05-19T03:28:12;2.58;;;2.38;;
12776;SDS011;6452;41.572;23.732;2023-05-19T03:30:37;3.22;;;2.90;;
12776;SDS011;6452;41.572;23.732;2023-05-19T03:33:03;3.63;;;3.33;;
12776;SDS011;6452;41.572;23.732;2023-05-19T03:35:29;2.03;;;1.92;;
12776;SDS011;6452;41.572;23.732;2023-05-19T03:37:55;4.88;;;2.97;;
12776;SDS011;6452;41.572;23.732;2023-05-19T03:40:21;3.72;;;3.42;;
12776;SDS011;6452;41.572;23.732;2023-05-19T03:42:47;5.18;;;4.78;;
12776;SDS011;6452;41.572;23.732;2023-05-19T03:45:14;7.53;;;6.85;;
12776;SDS011;6452;41.572;23.732;2023-05-19T03:47:40;6.10;;;5.53;;
12776;SDS011;6452;41.572;23.732;2023-05-19T03:50:06;7.65;;;6.88;;
12776;SDS011;6452;41.572;23.732;2023-05-19T03:52:34;5.55;;;5.05;;
12776;SDS011;6452;41.572;23.732;2023-05-19T03:55:00;5.47;;;4.97;;
12776;SDS011;6452;41.572;23.732;2023-05-19T03:57:26;10.98;;;9.50;;
12776;SDS011;6452;41.572;23.732;2023-05-19T03:59:54;11.35;;;9.65;;
12776;SDS011;6452;41.572;23.732;2023-05-19T04:02:20;8.07;;;6.78;;
12776;SDS011;6452;41.572;23.732;2023-05-19T04:04:46;7.20;;;6.38;;
12776;SDS011;6452;41.572;23.732;2023-05-19T04:07:11;7.00;;;5.05;;
12776;SDS011;6452;41.572;23.732;2023-05-19T04:09:37;3.38;;;3.08;;
12776;SDS011;6452;41.572;23.732;2023-05-19T04:12:03;4.38;;;3.97;;
12776;SDS011;6452;41.572;23.732;2023-05-19T04:14:30;4.72;;;3.85;;
12776;SDS011;6452;41.572;23.732;2023-05-19T04:16:56;3.30;;;3.08;;
12776;SDS011;6452;41.572;23.732;2023-05-19T04:19:22;2.70;;;2.55;;
12776;SDS011;6452;41.572;23.732;2023-05-19T04:21:48;1.90;;;1.90;;
12776;SDS011;6452;41.572;23.732;2023-05-19T04:24:14;2.60;;;2.33;;
12776;SDS011;6452;41.572;23.732;2023-05-19T04:26:40;1.80;;;1.70;;
12776;SDS011;6452;41.572;23.732;2023-05-19T04:29:10;1.70;;;1.60;;
12776;SDS011;6452;41.572;23.732;2023-05-19T04:31:41;2.55;;;2.00;;
12776;SDS011;6452;41.572;23.732;2023-05-19T04:34:25;1.85;;;1.75;;
12776;SDS011;6452;41.572;23.732;2023-05-19T04:36:53;1.83;;;1.73;;
12776;SDS011;6452;41.572;23.732;2023-05-19T04:39:19;4.35;;;1.70;;
12776;SDS011;6452;41.572;23.732;2023-05-19T04:41:46;1.67;;;1.58;;
12776;SDS011;6452;41.572;23.732;2023-05-19T04:44:12;1.75;;;1.70;;
12776;SDS011;6452;41.572;23.732;2023-05-19T04:46:43;1.48;;;1.38;;
12776;SDS011;6452;41.572;23.732;2023-05-19T04:49:09;1.67;;;1.67;;
12776;SDS011;6452;41.572;23.732;2023-05-19T04:51:55;1.77;;;1.70;;
12776;SDS011;6452;41.572;23.732;2023-05-19T04:54:21;2.05;;;1.85;;
12776;SDS011;6452;41.572;23.732;2023-05-19T04:56:47;2.15;;;1.80;;
12776;SDS011;6452;41.572;23.732;2023-05-19T04:59:13;1.65;;;1.58;;
12776;SDS011;6452;41.572;23.732;2023-05-19T05:01:39;1.60;;;1.60;;
12776;SDS011;6452;41.572;23.732;2023-05-19T05:04:07;1.83;;;1.73;;
12776;SDS011;6452;41.572;23.732;2023-05-19T05:06:33;3.15;;;1.85;;
12776;SDS011;6452;41.572;23.732;2023-05-19T05:09:02;2.13;;;2.03;;
12776;SDS011;6452;41.572;23.732;2023-05-19T05:11:29;1.67;;;1.58;;
12776;SDS011;6452;41.572;23.732;2023-05-19T05:13:55;3.05;;;2.10;;
12776;SDS011;6452;41.572;23.732;2023-05-19T05:16:22;1.92;;;1.80;;
12776;SDS011;6452;41.572;23.732;2023-05-19T05:18:49;3.13;;;2.28;;
12776;SDS011;6452;41.572;23.732;2023-05-19T05:21:16;2.03;;;1.90;;
12776;SDS011;6452;41.572;23.732;2023-05-19T05:23:43;1.73;;;1.73;;
12776;SDS011;6452;41.572;23.732;2023-05-19T05:26:09;1.67;;;1.52;;
12776;SDS011;6452;41.572;23.732;2023-05-19T05:28:40;2.25;;;1.75;;
12776;SDS011;6452;41.572;23.732;2023-05-19T05:31:05;1.85;;;1.75;;
12776;SDS011;6452;41.572;23.732;2023-05-19T05:33:31;2.03;;;1.92;;
12776;SDS011;6452;41.572;23.732;2023-05-19T05:35:57;2.58;;;2.25;;
12776;SDS011;6452;41.572;23.732;2023-05-19T05:38:24;1.98;;;1.88;;
12776;SDS011;6452;41.572;23.732;2023-05-19T05:40:50;2.33;;;1.92;;
12776;SDS011;6452;41.572;23.732;2023-05-19T05:43:20;2.55;;;2.35;;
12776;SDS011;6452;41.572;23.732;2023-05-19T05:45:46;2.20;;;2.10;;
12776;SDS011;6452;41.572;23.732;2023-05-19T05:48:12;2.25;;;2.05;;
12776;SDS011;6452;41.572;23.732;2023-05-19T05:50:38;2.63;;;2.42;;
12776;SDS011;6452;41.572;23.732;2023-05-19T05:53:05;2.17;;;2.08;;
12776;SDS011;6452;41.572;23.732;2023-05-19T05:55:31;2.83;;;2.38;;
12776;SDS011;6452;41.572;23.732;2023-05-19T05:57:58;3.13;;;2.53;;
12776;SDS011;6452;41.572;23.732;2023-05-19T06:00:26;2.53;;;2.40;;
12776;SDS011;6452;41.572;23.732;2023-05-19T06:02:52;2.20;;;2.10;;
12776;SDS011;6452;41.572;23.732;2023-05-19T06:05:18;2.60;;;2.40;;
12776;SDS011;6452;41.572;23.732;2023-05-19T06:07:45;3.17;;;2.95;;
12776;SDS011;6452;41.572;23.732;2023-05-19T06:10:11;2.97;;;2.78;;
12776;SDS011;6452;41.572;23.732;2023-05-19T06:12:37;3.05;;;2.85;;
12776;SDS011;6452;41.572;23.732;2023-05-19T06:15:05;3.00;;;2.80;;
12776;SDS011;6452;41.572;23.732;2023-05-19T06:17:31;3.30;;;3.00;;
12776;SDS011;6452;41.572;23.732;2023-05-19T06:20:02;3.30;;;3.10;;
12776;SDS011;6452;41.572;23.732;2023-05-19T06:22:30;3.42;;;3.13;;
12776;SDS011;6452;41.572;23.732;2023-05-19T06:24:56;3.15;;;2.92;;
12776;SDS011;6452;41.572;23.732;2023-05-19T06:27:22;3.13;;;2.83;;
12776;SDS011;6452;41.572;23.732;2023-05-19T06:29:48;2.97;;;2.78;;
12776;SDS011;6452;41.572;23.732;2023-05-19T06:32:14;3.40;;;3.10;;
12776;SDS011;6452;41.572;23.732;2023-05-19T06:34:40;3.25;;;3.00;;
12776;SDS011;6452;41.572;23.732;2023-05-19T06:37:06;3.10;;;2.90;;
12776;SDS011;6452;41.572;23.732;2023-05-19T06:39:32;2.97;;;2.78;;
12776;SDS011;6452;41.572;23.732;2023-05-19T06:41:58;3.33;;;3.10;;
12776;SDS011;6452;41.572;23.732;2023-05-19T06:44:24;2.63;;;2.42;;
12776;SDS011;6452;41.572;23.732;2023-05-19T06:46:50;3.72;;;3.42;;
12776;SDS011;6452;41.572;23.732;2023-05-19T06:49:16;3.22;;;2.63;;
12776;SDS011;6452;41.572;23.732;2023-05-19T06:51:42;3.35;;;2.97;;
12776;SDS011;6452;41.572;23.732;2023-05-19T06:54:08;2.80;;;2.60;;
12776;SDS011;6452;41.572;23.732;2023-05-19T06:56:37;2.70;;;2.50;;
12776;SDS011;6452;41.572;23.732;2023-05-19T06:59:03;3.20;;;2.95;;
12776;SDS011;6452;41.572;23.732;2023-05-19T07:01:29;3.22;;;3.03;;
12776;SDS011;6452;41.572;23.732;2023-05-19T07:03:56;3.63;;;3.33;;
12776;SDS011;6452;41.572;23.732;2023-05-19T07:06:22;2.95;;;2.75;;
12776;SDS011;6452;41.572;23.732;2023-05-19T07:08:48;3.28;;;2.97;;
12776;SDS011;6452;41.572;23.732;2023-05-19T07:11:14;5.10;;;3.20;;
12776;SDS011;6452;41.572;23.732;2023-05-19T07:13:40;2.90;;;2.70;;
12776;SDS011;6452;41.572;23.732;2023-05-19T07:16:06;2.85;;;2.70;;
12776;SDS011;6452;41.572;23.732;2023-05-19T07:18:32;3.72;;;2.97;;
12776;SDS011;6452;41.572;23.732;2023-05-19T07:20:58;3.17;;;2.97;;
12776;SDS011;6452;41.572;23.732;2023-05-19T07:23:24;3.10;;;2.90;;
12776;SDS011;6452;41.572;23.732;2023-05-19T07:25:54;2.97;;;2.78;;
12776;SDS011;6452;41.572;23.732;2023-05-19T07:28:20;2.80;;;2.60;;
12776;SDS011;6452;41.572;23.732;2023-05-19T07:30:46;3.20;;;3.00;;
12776;SDS011;6452;41.572;23.732;2023-05-19T07:33:14;2.85;;;2.40;;
12776;SDS011;6452;41.572;23.732;2023-05-19T07:35:40;2.95;;;2.75;;
12776;SDS011;6452;41.572;23.732;2023-05-19T07:38:06;3.35;;;3.10;;
12776;SDS011;6452;41.572;23.732;2023-05-19T07:40:34;2.80;;;2.67;;
12776;SDS011;6452;41.572;23.732;2023-05-19T07:43:00;2.70;;;2.50;;
12776;SDS011;6452;41.572;23.732;2023-05-19T07:45:26;3.67;;;2.83;;
12776;SDS011;6452;41.572;23.732;2023-05-19T07:47:52;2.75;;;2.65;;
12776;SDS011;6452;41.572;23.732;2023-05-19T07:50:18;3.05;;;2.85;;
12776;SDS011;6452;41.572;23.732;2023-05-19T07:52:44;2.88;;;2.70;;
12776;SDS011;6452;41.572;23.732;2023-05-19T07:55:10;3.22;;;2.97;;
12776;SDS011;6452;41.572;23.732;2023-05-19T07:57:36;2.83;;;2.70;;
12776;SDS011;6452;41.572;23.732;2023-05-19T08:00:03;3.28;;;2.80;;
12776;SDS011;6452;41.572;23.732;2023-05-19T08:02:32;3.03;;;2.72;;
12776;SDS011;6452;41.572;23.732;2023-05-19T08:04:58;2.70;;;2.50;;
12776;SDS011;6452;41.572;23.732;2023-05-19T08:07:24;3.05;;;2.85;;
12776;SDS011;6452;41.572;23.732;2023-05-19T08:09:50;3.20;;;2.90;;
12776;SDS011;6452;41.572;23.732;2023-05-19T08:12:15;3.17;;;2.88;;
12776;SDS011;6452;41.572;23.732;2023-05-19T08:14:41;3.30;;;2.97;;
12776;SDS011;6452;41.572;23.732;2023-05-19T08:17:08;3.25;;;3.05;;
12776;SDS011;6452;41.572;23.732;2023-05-19T08:19:34;2.67;;;2.50;;
12776;SDS011;6452;41.572;23.732;2023-05-19T08:22:00;3.17;;;2.97;;
12776;SDS011;6452;41.572;23.732;2023-05-19T08:24:26;3.35;;;2.70;;
12776;SDS011;6452;41.572;23.732;2023-05-19T08:26:54;2.80;;;2.70;;
12776;SDS011;6452;41.572;23.732;2023-05-19T08:29:21;2.65;;;2.55;;
12776;SDS011;6452;41.572;23.732;2023-05-19T08:31:47;3.33;;;3.00;;
12776;SDS011;6452;41.572;23.732;2023-05-19T08:34:13;3.75;;;2.72;;
12776;SDS011;6452;41.572;23.732;2023-05-19T08:36:39;3.25;;;3.05;;
12776;SDS011;6452;41.572;23.732;2023-05-19T08:39:06;2.58;;;2.40;;
12776;SDS011;6452;41.572;23.732;2023-05-19T08:41:32;3.17;;;2.92;;
12776;SDS011;6452;41.572;23.732;2023-05-19T08:44:04;3.00;;;2.80;;
12776;SDS011;6452;41.572;23.732;2023-05-19T08:46:30;3.15;;;2.95;;
12776;SDS011;6452;41.572;23.732;2023-05-19T08:48:57;2.95;;;2.75;;
12776;SDS011;6452;41.572;23.732;2023-05-19T08:54:13;3.63;;;2.90;;
12776;SDS011;6452;41.572;23.732;2023-05-19T08:56:39;2.75;;;2.60;;
12776;SDS011;6452;41.572;23.732;2023-05-19T08:59:05;4.22;;;2.80;;
12776;SDS011;6452;41.572;23.732;2023-05-19T09:01:32;2.80;;;2.60;;
12776;SDS011;6452;41.572;23.732;2023-05-19T09:03:58;2.70;;;2.50;;
12776;SDS011;6452;41.572;23.732;2023-05-19T09:06:24;2.88;;;2.60;;
12776;SDS011;6452;41.572;23.732;2023-05-19T09:08:50;3.63;;;2.88;;
12776;SDS011;6452;41.572;23.732;2023-05-19T09:11:16;2.83;;;2.63;;
12776;SDS011;6452;41.572;23.732;2023-05-19T09:13:42;3.00;;;2.65;;
12776;SDS011;6452;41.572;23.732;2023-05-19T09:16:08;2.70;;;2.50;;
12776;SDS011;6452;41.572;23.732;2023-05-19T09:18:36;4.15;;;2.67;;
12776;SDS011;6452;41.572;23.732;2023-05-19T09:21:02;3.30;;;2.70;;
12776;SDS011;6452;41.572;23.732;2023-05-19T09:23:30;3.05;;;2.85;;
12776;SDS011;6452;41.572;23.732;2023-05-19T09:26:00;2.42;;;2.33;;
12776;SDS011;6452;41.572;23.732;2023-05-19T09:28:26;2.67;;;2.53;;
12776;SDS011;6452;41.572;23.732;2023-05-19T09:31:03;2.67;;;2.47;;
12776;SDS011;6452;41.572;23.732;2023-05-19T09:33:33;2.90;;;2.70;;
12776;SDS011;6452;41.572;23.732;2023-05-19T09:35:59;4.57;;;3.03;;
12776;SDS011;6452;41.572;23.732;2023-05-19T09:38:25;2.63;;;2.53;;
12776;SDS011;6452;41.572;23.732;2023-05-19T09:40:52;3.20;;;3.00;;
12776;SDS011;6452;41.572;23.732;2023-05-19T09:43:18;3.47;;;3.17;;
12776;SDS011;6452;41.572;23.732;2023-05-19T09:45:44;3.22;;;2.97;;
12776;SDS011;6452;41.572;23.732;2023-05-19T09:48:10;4.07;;;2.97;;
12776;SDS011;6452;41.572;23.732;2023-05-19T09:50:37;3.35;;;3.05;;
12776;SDS011;6452;41.572;23.732;2023-05-19T09:53:03;3.90;;;3.03;;
12776;SDS011;6452;41.572;23.732;2023-05-19T09:55:29;3.50;;;3.20;;
12776;SDS011;6452;41.572;23.732;2023-05-19T09:57:57;3.88;;;3.28;;
12776;SDS011;6452;41.572;23.732;2023-05-19T10:00:24;3.13;;;2.78;;
12776;SDS011;6452;41.572;23.732;2023-05-19T10:02:51;3.00;;;2.80;;
12776;SDS011;6452;41.572;23.732;2023-05-19T10:05:17;3.22;;;2.90;;
12776;SDS011;6452;41.572;23.732;2023-05-19T10:07:49;3.75;;;3.03;;
12776;SDS011;6452;41.572;23.732;2023-05-19T10:10:16;3.90;;;2.88;;
12776;SDS011;6452;41.572;23.732;2023-05-19T10:12:41;3.30;;;3.10;;
12776;SDS011;6452;41.572;23.732;2023-05-19T10:15:25;3.58;;;3.28;;
12776;SDS011;6452;41.572;23.732;2023-05-19T10:17:56;3.13;;;2.92;;
12776;SDS011;6452;41.572;23.732;2023-05-19T10:20:22;2.95;;;2.60;;
12776;SDS011;6452;41.572;23.732;2023-05-19T10:22:48;3.20;;;2.97;;
12776;SDS011;6452;41.572;23.732;2023-05-19T10:25:14;3.83;;;3.10;;
12776;SDS011;6452;41.572;23.732;2023-05-19T10:27:53;3.13;;;2.92;;
12776;SDS011;6452;41.572;23.732;2023-05-19T10:30:30;3.28;;;3.05;;
12776;SDS011;6452;41.572;23.732;2023-05-19T10:32:57;3.22;;;2.97;;
12776;SDS011;6452;41.572;23.732;2023-05-19T10:40:52;3.45;;;3.20;;
12776;SDS011;6452;41.572;23.732;2023-05-19T10:45:51;3.15;;;2.75;;
12776;SDS011;6452;41.572;23.732;2023-05-19T10:48:18;5.03;;;3.92;;
12776;SDS011;6452;41.572;23.732;2023-05-19T10:50:44;3.38;;;3.08;;
12776;SDS011;6452;41.572;23.732;2023-05-19T10:53:14;3.60;;;3.30;;
12776;SDS011;6452;41.572;23.732;2023-05-19T10:58:12;4.35;;;3.67;;
12776;SDS011;6452;41.572;23.732;2023-05-19T11:00:38;4.68;;;4.10;;
12776;SDS011;6452;41.572;23.732;2023-05-19T11:03:16;4.68;;;4.20;;
12776;SDS011;6452;41.572;23.732;2023-05-19T11:05:43;5.15;;;4.63;;
12776;SDS011;6452;41.572;23.732;2023-05-19T11:08:11;4.05;;;3.75;;
12776;SDS011;6452;41.572;23.732;2023-05-19T11:10:37;5.25;;;3.83;;
12776;SDS011;6452;41.572;23.732;2023-05-19T11:13:03;4.35;;;3.95;;
12776;SDS011;6452;41.572;23.732;2023-05-19T11:15:28;4.70;;;4.20;;
12776;SDS011;6452;41.572;23.732;2023-05-19T11:17:58;4.18;;;3.88;;
12776;SDS011;6452;41.572;23.732;2023-05-19T11:20:26;3.40;;;3.17;;
12776;SDS011;6452;41.572;23.732;2023-05-19T11:25:40;3.10;;;2.90;;
12776;SDS011;6452;41.572;23.732;2023-05-19T11:28:05;4.50;;;2.83;;
12776;SDS011;6452;41.572;23.732;2023-05-19T11:30:31;3.25;;;3.05;;
12776;SDS011;6452;41.572;23.732;2023-05-19T11:32:57;3.65;;;3.35;;
12776;SDS011;6452;41.572;23.732;2023-05-19T11:35:23;3.53;;;3.22;;
12776;SDS011;6452;41.572;23.732;2023-05-19T11:37:51;3.97;;;3.63;;
12776;SDS011;6452;41.572;23.732;2023-05-19T11:40:18;4.20;;;2.95;;
12776;SDS011;6452;41.572;23.732;2023-05-19T11:42:46;3.80;;;3.50;;
12776;SDS011;6452;41.572;23.732;2023-05-19T11:45:12;3.60;;;3.20;;
12776;SDS011;6452;41.572;23.732;2023-05-19T11:47:38;4.40;;;3.33;;
12776;SDS011;6452;41.572;23.732;2023-05-19T11:50:04;4.22;;;3.70;;
12776;SDS011;6452;41.572;23.732;2023-05-19T11:52:32;3.80;;;3.50;;
12776;SDS011;6452;41.572;23.732;2023-05-19T11:55:00;4.25;;;3.25;;
12776;SDS011;6452;41.572;23.732;2023-05-19T11:57:27;3.42;;;3.15;;
12776;SDS011;6452;41.572;23.732;2023-05-19T11:59:56;3.85;;;3.55;;
12776;SDS011;6452;41.572;23.732;2023-05-19T12:02:26;4.60;;;3.80;;
12776;SDS011;6452;41.572;23.732;2023-05-19T12:04:54;3.85;;;3.55;;
12776;SDS011;6452;41.572;23.732;2023-05-19T12:07:21;4.40;;;3.75;;
12776;SDS011;6452;41.572;23.732;2023-05-19T12:09:50;3.65;;;3.35;;
12776;SDS011;6452;41.572;23.732;2023-05-19T12:12:33;3.75;;;3.45;;
12776;SDS011;6452;41.572;23.732;2023-05-19T12:15:01;4.10;;;3.70;;
12776;SDS011;6452;41.572;23.732;2023-05-19T12:17:28;3.92;;;3.60;;
12776;SDS011;6452;41.572;23.732;2023-05-19T12:19:57;4.20;;;3.90;;
12776;SDS011;6452;41.572;23.732;2023-05-19T12:22:23;4.13;;;3.67;;
12776;SDS011;6452;41.572;23.732;2023-05-19T12:24:50;5.72;;;3.97;;
12776;SDS011;6452;41.572;23.732;2023-05-19T12:27:16;4.40;;;3.63;;
12776;SDS011;6452;41.572;23.732;2023-05-19T12:29:49;3.90;;;3.60;;
12776;SDS011;6452;41.572;23.732;2023-05-19T12:32:34;4.20;;;3.80;;
12776;SDS011;6452;41.572;23.732;2023-05-19T12:35:03;4.00;;;3.65;;
12776;SDS011;6452;41.572;23.732;2023-05-19T12:37:30;4.47;;;3.97;;
12776;SDS011;6452;41.572;23.732;2023-05-19T12:39:58;4.90;;;3.63;;
12776;SDS011;6452;41.572;23.732;2023-05-19T12:42:27;4.70;;;3.72;;
12776;SDS011;6452;41.572;23.732;2023-05-19T12:44:59;4.10;;;3.78;;
12776;SDS011;6452;41.572;23.732;2023-05-19T12:47:41;3.55;;;3.13;;
12776;SDS011;6452;41.572;23.732;2023-05-19T12:50:12;4.05;;;3.47;;
12776;SDS011;6452;41.572;23.732;2023-05-19T12:55:07;4.18;;;3.80;;
12776;SDS011;6452;41.572;23.732;2023-05-19T12:57:35;3.97;;;3.67;;
12776;SDS011;6452;41.572;23.732;2023-05-19T13:00:02;6.22;;;3.90;;
12776;SDS011;6452;41.572;23.732;2023-05-19T13:02:34;3.72;;;3.42;;
12776;SDS011;6452;41.572;23.732;2023-05-19T13:05:01;3.95;;;3.65;;
12776;SDS011;6452;41.572;23.732;2023-05-19T13:07:29;4.15;;;3.50;;
12776;SDS011;6452;41.572;23.732;2023-05-19T13:09:54;3.83;;;3.50;;
12776;SDS011;6452;41.572;23.732;2023-05-19T13:12:21;4.05;;;3.75;;
12776;SDS011;6452;41.572;23.732;2023-05-19T13:14:46;4.43;;;3.75;;
12776;SDS011;6452;41.572;23.732;2023-05-19T13:17:13;4.03;;;3.30;;
12776;SDS011;6452;41.572;23.732;2023-05-19T13:19:39;4.25;;;3.70;;
12776;SDS011;6452;41.572;23.732;2023-05-19T13:22:04;4.15;;;3.22;;
12776;SDS011;6452;41.572;23.732;2023-05-19T13:24:31;6.35;;;3.63;;
12776;SDS011;6452;41.572;23.732;2023-05-19T13:26:56;4.20;;;3.13;;
12776;SDS011;6452;41.572;23.732;2023-05-19T13:29:23;3.83;;;3.53;;
12776;SDS011;6452;41.572;23.732;2023-05-19T13:31:49;4.72;;;3.60;;
12776;SDS011;6452;41.572;23.732;2023-05-19T13:34:15;3.58;;;3.28;;
12776;SDS011;6452;41.572;23.732;2023-05-19T13:36:42;3.50;;;3.30;;
12776;SDS011;6452;41.572;23.732;2023-05-19T13:39:12;3.58;;;3.28;;
12776;SDS011;6452;41.572;23.732;2023-05-19T13:41:38;3.85;;;3.55;;
12776;SDS011;6452;41.572;23.732;2023-05-19T13:44:04;3.97;;;3.50;;
12776;SDS011;6452;41.572;23.732;2023-05-19T13:46:30;3.53;;;3.22;;
12776;SDS011;6452;41.572;23.732;2023-05-19T13:48:57;4.00;;;3.70;;
12776;SDS011;6452;41.572;23.732;2023-05-19T13:51:23;4.90;;;3.70;;
12776;SDS011;6452;41.572;23.732;2023-05-19T13:53:49;4.35;;;3.53;;
12776;SDS011;6452;41.572;23.732;2023-05-19T13:56:15;4.03;;;3.72;;
12776;SDS011;6452;41.572;23.732;2023-05-19T13:58:41;5.00;;;3.70;;
12776;SDS011;6452;41.572;23.732;2023-05-19T14:01:07;4.28;;;3.88;;
12776;SDS011;6452;41.572;23.732;2023-05-19T14:03:34;5.05;;;3.72;;
12776;SDS011;6452;41.572;23.732;2023-05-19T14:06:01;4.55;;;3.90;;
12776;SDS011;6452;41.572;23.732;2023-05-19T14:08:27;4.68;;;3.80;;
12776;SDS011;6452;41.572;23.732;2023-05-19T14:10:53;3.17;;;2.97;;
12776;SDS011;6452;41.572;23.732;2023-05-19T14:13:20;4.00;;;3.70;;
12776;SDS011;6452;41.572;23.732;2023-05-19T14:15:46;5.10;;;4.60;;
12776;SDS011;6452;41.572;23.732;2023-05-19T14:18:13;6.03;;;4.93;;
12776;SDS011;6452;41.572;23.732;2023-05-19T14:20:40;4.47;;;4.07;;
12776;SDS011;6452;41.572;23.732;2023-05-19T14:23:06;5.22;;;4.13;;
12776;SDS011;6452;41.572;23.732;2023-05-19T14:25:32;4.20;;;3.85;;
12776;SDS011;6452;41.572;23.732;2023-05-19T14:27:59;3.95;;;3.58;;
12776;SDS011;6452;41.572;23.732;2023-05-19T14:30:25;5.20;;;4.70;;
12776;SDS011;6452;41.572;23.732;2023-05-19T14:32:55;4.03;;;3.70;;
12776;SDS011;6452;41.572;23.732;2023-05-19T14:35:22;8.02;;;3.85;;
12776;SDS011;6452;41.572;23.732;2023-05-19T14:37:48;4.25;;;3.17;;
12776;SDS011;6452;41.572;23.732;2023-05-19T14:40:14;3.13;;;2.88;;
12776;SDS011;6452;41.572;23.732;2023-05-19T14:42:40;4.15;;;2.45;;
12776;SDS011;6452;41.572;23.732;2023-05-19T14:45:06;4.53;;;3.08;;
12776;SDS011;6452;41.572;23.732;2023-05-19T14:47:33;4.78;;;4.38;;
12776;SDS011;6452;41.572;23.732;2023-05-19T14:49:59;5.43;;;4.75;;
12776;SDS011;6452;41.572;23.732;2023-05-19T14:52:25;5.28;;;4.78;;
12776;SDS011;6452;41.572;23.732;2023-05-19T14:54:55;4.47;;;4.07;;
12776;SDS011;6452;41.572;23.732;2023-05-19T14:57:21;3.90;;;3.55;;
12776;SDS011;6452;41.572;23.732;2023-05-19T14:59:48;3.72;;;3.15;;
12776;SDS011;6452;41.572;23.732;2023-05-19T15:02:14;4.65;;;3.67;;
12776;SDS011;6452;41.572;23.732;2023-05-19T15:04:40;4.63;;;3.80;;
12776;SDS011;6452;41.572;23.732;2023-05-19T15:07:06;4.22;;;3.78;;
12776;SDS011;6452;41.572;23.732;2023-05-19T15:09:31;5.43;;;4.05;;
12776;SDS011;6452;41.572;23.732;2023-05-19T15:11:58;4.85;;;3.92;;
12776;SDS011;6452;41.572;23.732;2023-05-19T15:14:25;5.03;;;3.60;;
12776;SDS011;6452;41.572;23.732;2023-05-19T15:16:51;4.03;;;3.63;;
12776;SDS011;6452;41.572;23.732;2023-05-19T15:19:17;3.78;;;3.47;;
12776;SDS011;6452;41.572;23.732;2023-05-19T15:21:43;4.03;;;3.63;;
12776;SDS011;6452;41.572;23.732;2023-05-19T15:24:10;4.72;;;4.13;;